Time;durP1;ratioP1;P1;durP2;ratioP2;P2;SDS_P1;SDS_P2;PMS_P1;PMS_P2;Temp;Humidity;BMP_temperature;BMP_pressure;BME280_temperature;BME280_humidity;BME280_pressure;Samples;Min_cycle;Max_cycle;Signal;HPM_P1;HPM_P2
2022/08/02 00:00:42;;;;;;;5.45;1.45;;;28.10;96.70;;;;;;4984177;28;20074;-79
2022/08/02 00:03:10;;;;;;;2.47;1.40;;;28.00;96.70;;;;;;4983810;28;20050;-78
2022/08/02 00:05:39;;;;;;;2.47;1.35;;;28.10;96.70;;;;;;4983056;28;20043;-78
2022/08/02 00:08:07;;;;;;;1.95;1.23;;;28.10;96.70;;;;;;4985143;28;20053;-77
2022/08/02 00:10:37;;;;;;;1.88;1.25;;;28.00;96.70;;;;;;4966393;28;20058;-78
2022/08/02 00:13:05;;;;;;;2.97;1.70;;;28.00;96.70;;;;;;4985306;28;20164;-78
2022/08/02 00:15:33;;;;;;;2.72;1.10;;;28.00;96.70;;;;;;4970611;28;20050;-78
2022/08/02 00:18:02;;;;;;;2.28;1.10;;;27.90;96.70;;;;;;4973689;28;20377;-77
2022/08/02 00:20:30;;;;;;;5.75;1.50;;;27.80;96.70;;;;;;4986208;28;20061;-78
2022/08/02 00:22:58;;;;;;;3.67;1.40;;;27.80;96.70;;;;;;4984869;28;20113;-77
2022/08/02 00:25:26;;;;;;;2.55;1.30;;;27.80;96.70;;;;;;4988439;28;20069;-77
2022/08/02 00:27:56;;;;;;;6.35;1.30;;;27.80;96.70;;;;;;4985851;28;20045;-77
2022/08/02 00:30:24;;;;;;;2.55;1.27;;;27.80;96.70;;;;;;4989726;28;20050;-77
2022/08/02 00:32:53;;;;;;;3.53;1.23;;;27.90;96.70;;;;;;4983648;28;20468;-77
2022/08/02 00:35:21;;;;;;;3.13;1.75;;;27.90;96.70;;;;;;4967915;28;20519;-77
2022/08/02 00:37:49;;;;;;;4.90;1.50;;;27.90;96.70;;;;;;4981820;28;20046;-76
2022/08/02 00:40:22;;;;;;;3.00;1.17;;;27.80;96.70;;;;;;4986257;28;20350;-77
2022/08/02 00:43:07;;;;;;;4.47;2.00;;;27.80;96.70;;;;;;4985192;28;20050;-76
2022/08/02 00:45:37;;;;;;;2.10;1.55;;;27.70;96.70;;;;;;4928861;29;20061;-76
2022/08/02 00:48:25;;;;;;;4.25;1.35;;;27.70;96.70;;;;;;4910512;29;20040;-77
2022/08/02 00:50:55;;;;;;;1.75;1.30;;;27.70;96.70;;;;;;4901616;29;20040;-77
2022/08/02 00:53:23;;;;;;;5.75;1.77;;;27.70;96.70;;;;;;4922275;29;20132;-77
2022/08/02 00:55:51;;;;;;;3.72;1.40;;;27.50;96.70;;;;;;4924785;29;20497;-76
2022/08/02 00:58:21;;;;;;;2.58;1.52;;;27.50;96.70;;;;;;4922763;29;20056;-77
2022/08/02 01:00:51;;;;;;;3.35;1.20;;;27.50;96.70;;;;;;4925500;29;20160;-77
2022/08/02 01:03:21;;;;;;;3.35;1.75;;;27.60;96.70;;;;;;4924933;29;20059;-79
2022/08/02 01:05:49;;;;;;;1.90;1.08;;;27.50;96.70;;;;;;4925768;29;20048;-79
2022/08/02 01:08:37;;;;;;;4.18;1.30;;;27.40;96.70;;;;;;4925998;29;21327;-79
2022/08/02 01:11:06;;;;;;;4.70;1.50;;;27.30;96.70;;;;;;4909967;29;20227;-79
2022/08/02 01:13:36;;;;;;;2.88;1.08;;;27.40;96.70;;;;;;4924033;29;20811;-79
2022/08/02 01:16:13;;;;;;;5.53;1.65;;;27.30;96.70;;;;;;4925575;28;20066;-79
2022/08/02 01:18:44;;;;;;;3.10;1.30;;;27.30;96.70;;;;;;4986277;28;20508;-79
2022/08/02 01:21:46;;;;;;;3.00;1.10;;;27.30;96.70;;;;;;4983830;28;20066;-78
2022/08/02 01:24:31;;;;;;;2.78;1.27;;;27.30;96.70;;;;;;4969373;28;20050;-79
2022/08/02 01:27:10;;;;;;;3.00;1.20;;;27.40;96.70;;;;;;4986111;28;20113;-79
2022/08/02 01:29:44;;;;;;;2.58;1.20;;;27.40;96.70;;;;;;4984033;28;20117;-79
2022/08/02 01:32:16;;;;;;;4.47;1.38;;;27.30;96.70;;;;;;4979382;28;20054;-78
2022/08/02 01:34:50;;;;;;;2.08;1.00;;;27.30;96.70;;;;;;4985574;28;20093;-79
2022/08/02 01:37:21;;;;;;;2.80;0.98;;;27.30;96.70;;;;;;4980772;28;20050;-79
2022/08/02 01:39:53;;;;;;;1.67;1.00;;;27.20;96.70;;;;;;4983624;28;20070;-79
2022/08/02 01:42:23;;;;;;;4.30;1.40;;;27.20;96.70;;;;;;4986145;28;20034;-79
2022/08/02 01:44:54;;;;;;;4.32;1.00;;;27.20;96.70;;;;;;4983979;28;20062;-78
2022/08/02 01:47:26;;;;;;;1.67;1.02;;;27.10;96.70;;;;;;4963488;28;20893;-79
2022/08/02 01:49:57;;;;;;;2.05;0.93;;;27.00;96.70;;;;;;4984978;28;20439;-79
2022/08/02 01:52:30;;;;;;;1.40;0.90;;;27.10;96.70;;;;;;4986057;28;20038;-79
2022/08/02 01:55:01;;;;;;;2.20;1.10;;;27.00;96.70;;;;;;4980638;28;20039;-79
2022/08/02 01:57:33;;;;;;;2.20;1.38;;;27.00;96.70;;;;;;4988072;28;20046;-79
2022/08/02 02:00:11;;;;;;;1.23;0.98;;;27.00;96.70;;;;;;4985414;28;20049;-79
2022/08/02 02:02:43;;;;;;;1.38;0.90;;;26.90;96.70;;;;;;4982670;28;20046;-78
2022/08/02 02:05:15;;;;;;;2.55;1.00;;;26.80;96.70;;;;;;4981576;28;20084;-79
2022/08/02 02:07:45;;;;;;;3.92;1.20;;;26.80;96.70;;;;;;4985750;28;20112;-78
2022/08/02 02:10:14;;;;;;;2.42;1.15;;;26.90;96.70;;;;;;4978818;28;20078;-78
2022/08/02 02:12:46;;;;;;;0.95;0.80;;;27.00;96.70;;;;;;4984104;28;20054;-79
2022/08/02 02:15:16;;;;;;;0.90;0.88;;;26.90;96.70;;;;;;4981079;28;20047;-78
2022/08/02 02:17:46;;;;;;;2.80;1.35;;;26.80;96.70;;;;;;4982816;28;20540;-79
2022/08/02 02:20:34;;;;;;;2.20;1.00;;;26.80;96.70;;;;;;4983037;28;20050;-78
2022/08/02 02:23:07;;;;;;;2.85;0.90;;;26.70;96.70;;;;;;4983078;28;20042;-79
2022/08/02 02:25:36;;;;;;;0.85;0.80;;;26.60;96.70;;;;;;4970237;28;20034;-79
2022/08/02 02:28:20;;;;;;;1.52;1.05;;;26.50;96.70;;;;;;4982147;28;20057;-79
2022/08/02 02:30:54;;;;;;;1.07;0.90;;;26.50;96.70;;;;;;4983680;28;20058;-79
2022/08/02 02:33:22;;;;;;;1.42;0.82;;;26.50;96.70;;;;;;4978377;28;20054;-79
2022/08/02 02:35:58;;;;;;;4.40;1.10;;;26.50;96.70;;;;;;4968618;28;20046;-78
2022/08/02 02:38:30;;;;;;;2.55;1.60;;;26.50;96.70;;;;;;4982282;28;20058;-79
2022/08/02 02:41:00;;;;;;;1.80;1.20;;;26.50;96.70;;;;;;4981804;28;20519;-80
2022/08/02 02:43:31;;;;;;;2.58;1.50;;;26.30;96.70;;;;;;4978144;28;20543;-79
2022/08/02 02:46:02;;;;;;;2.63;1.05;;;26.20;96.70;;;;;;4967538;28;20070;-79
2022/08/02 02:48:31;;;;;;;1.60;1.23;;;26.20;96.70;;;;;;4967006;28;20046;-80
2022/08/02 02:51:02;;;;;;;2.00;0.80;;;26.20;96.70;;;;;;4984977;28;20042;-79
2022/08/02 02:53:31;;;;;;;1.52;1.00;;;26.30;96.70;;;;;;4985379;28;20044;-79
2022/08/02 02:56:24;;;;;;;2.50;0.88;;;26.30;96.70;;;;;;4988481;28;20043;-79
2022/08/02 02:58:53;;;;;;;1.67;1.00;;;26.30;96.70;;;;;;4973874;28;20053;-79
2022/08/02 03:01:32;;;;;;;1.33;1.00;;;26.30;96.70;;;;;;4966890;28;20822;-78
2022/08/02 03:04:21;;;;;;;1.25;1.15;;;26.30;96.70;;;;;;4983277;28;20097;-79
2022/08/02 03:06:49;;;;;;;1.60;1.13;;;26.30;96.70;;;;;;4982549;28;20508;-79
2022/08/02 03:09:17;;;;;;;1.98;0.88;;;26.20;96.70;;;;;;4987755;28;20049;-79
2022/08/02 03:11:45;;;;;;;1.70;0.90;;;26.10;96.70;;;;;;4961797;28;20043;-79
2022/08/02 03:14:14;;;;;;;3.20;0.90;;;26.00;96.70;;;;;;4982266;28;20097;-79
2022/08/02 03:16:45;;;;;;;2.60;0.85;;;26.00;96.70;;;;;;4980029;28;20133;-79
2022/08/02 03:19:14;;;;;;;2.67;0.80;;;26.10;96.70;;;;;;4983186;28;20449;-78
2022/08/02 03:21:43;;;;;;;1.45;0.95;;;26.10;96.70;;;;;;4981109;28;20145;-78
2022/08/02 03:24:11;;;;;;;2.53;1.00;;;26.10;96.70;;;;;;4988460;28;20045;-79
2022/08/02 03:26:39;;;;;;;2.75;1.42;;;26.10;96.70;;;;;;4982352;28;20412;-79
2022/08/02 03:29:08;;;;;;;1.85;0.90;;;26.00;96.70;;;;;;4982361;28;20050;-78
2022/08/02 03:31:40;;;;;;;1.42;0.70;;;26.00;96.70;;;;;;4980337;28;20045;-79
2022/08/02 03:34:10;;;;;;;1.77;1.08;;;26.00;96.70;;;;;;4976766;28;20172;-79
2022/08/02 03:36:39;;;;;;;3.53;1.10;;;26.00;96.70;;;;;;4982379;28;20050;-79
2022/08/02 03:39:08;;;;;;;3.60;1.20;;;25.90;96.70;;;;;;4982098;28;20062;-79
2022/08/02 03:41:37;;;;;;;1.35;1.08;;;25.90;96.70;;;;;;4982673;28;20132;-79
2022/08/02 03:44:06;;;;;;;1.92;0.98;;;26.00;96.70;;;;;;4978681;28;20423;-80
2022/08/02 03:46:38;;;;;;;2.22;0.98;;;26.00;96.70;;;;;;4961033;28;20060;-79
2022/08/02 03:49:08;;;;;;;2.17;1.30;;;26.10;96.70;;;;;;4978410;28;20678;-79
2022/08/02 03:51:37;;;;;;;3.17;1.25;;;26.10;96.70;;;;;;4976777;28;20051;-80
2022/08/02 03:54:06;;;;;;;0.93;0.85;;;26.10;96.70;;;;;;4977048;28;20035;-79
2022/08/02 03:56:34;;;;;;;5.82;1.40;;;26.00;96.70;;;;;;4958807;28;20147;-79
2022/08/02 03:59:06;;;;;;;3.20;1.15;;;25.90;96.70;;;;;;4964514;28;20053;-78
2022/08/02 04:01:34;;;;;;;4.47;1.20;;;25.80;96.70;;;;;;4980188;28;20091;-79
2022/08/02 04:04:03;;;;;;;4.10;1.10;;;25.80;96.70;;;;;;4977105;28;20445;-79
2022/08/02 04:06:31;;;;;;;2.45;1.13;;;25.70;96.70;;;;;;4978430;28;20109;-78
2022/08/02 04:09:00;;;;;;;3.28;0.95;;;25.60;96.70;;;;;;4977536;28;20125;-79
2022/08/02 04:11:31;;;;;;;6.05;1.50;;;25.50;96.70;;;;;;4977472;28;20098;-79
2022/08/02 04:14:00;;;;;;;4.00;1.10;;;25.50;96.70;;;;;;4961633;28;20412;-79
2022/08/02 04:16:36;;;;;;;2.88;1.33;;;25.50;96.70;;;;;;4980277;28;20043;-79
2022/08/02 04:19:07;;;;;;;6.97;1.10;;;25.60;96.70;;;;;;4964415;28;20079;-83
2022/08/02 04:21:45;;;;;;;2.25;1.27;;;25.60;96.70;;;;;;4979985;28;20043;-78
2022/08/02 04:24:26;;;;;;;1.98;1.20;;;25.60;96.70;;;;;;4976300;28;20043;-77
2022/08/02 04:26:56;;;;;;;3.97;1.10;;;25.70;96.70;;;;;;4960483;28;20619;-78
2022/08/02 04:29:35;;;;;;;6.47;1.42;;;25.60;96.70;;;;;;4976134;28;20162;-78
2022/08/02 04:32:05;;;;;;;3.92;1.48;;;25.60;96.70;;;;;;4963788;28;20051;-78
2022/08/02 04:34:33;;;;;;;1.52;1.20;;;25.60;96.70;;;;;;4972966;28;20051;-78
2022/08/02 04:37:01;;;;;;;2.33;1.42;;;25.60;96.70;;;;;;4971882;28;20442;-78
2022/08/02 04:39:31;;;;;;;3.35;1.40;;;25.60;96.70;;;;;;4964608;28;20088;-78
2022/08/02 04:41:59;;;;;;;4.80;1.35;;;25.50;96.70;;;;;;4982486;28;20039;-78
2022/08/02 04:44:30;;;;;;;2.63;1.15;;;25.50;96.70;;;;;;4982616;28;20050;-79
2022/08/02 04:47:01;;;;;;;3.30;1.13;;;25.60;96.70;;;;;;4976800;28;20638;-77
2022/08/02 04:49:33;;;;;;;4.05;1.50;;;25.60;96.70;;;;;;4982729;28;20264;-78
2022/08/02 04:52:02;;;;;;;4.22;1.20;;;25.50;96.70;;;;;;4983012;28;20406;-78
2022/08/02 04:54:32;;;;;;;4.75;1.45;;;25.60;96.70;;;;;;4982946;28;20081;-79
2022/08/02 04:57:00;;;;;;;3.13;1.42;;;25.70;96.70;;;;;;4966436;28;20122;-78
2022/08/02 04:59:29;;;;;;;4.93;1.50;;;25.70;96.70;;;;;;4960800;28;20059;-78
2022/08/02 05:01:57;;;;;;;3.58;1.30;;;25.80;96.70;;;;;;4961743;28;20133;-78
2022/08/02 05:04:26;;;;;;;7.15;1.52;;;25.70;96.70;;;;;;4983088;28;20043;-78
2022/08/02 05:06:54;;;;;;;3.83;1.63;;;25.70;96.70;;;;;;4981307;28;20047;-79
2022/08/02 05:09:22;;;;;;;3.90;1.65;;;25.90;96.70;;;;;;4966915;28;20424;-79
2022/08/02 05:11:52;;;;;;;3.25;1.17;;;25.90;96.70;;;;;;4964601;28;20121;-79
2022/08/02 05:14:22;;;;;;;2.53;1.25;;;25.90;96.70;;;;;;4978198;28;20054;-79
2022/08/02 05:16:50;;;;;;;4.32;1.48;;;25.90;96.70;;;;;;4983419;28;20042;-82
2022/08/02 05:19:19;;;;;;;3.15;1.27;;;25.90;96.70;;;;;;4984456;28;20104;-82
2022/08/02 05:21:47;;;;;;;2.65;1.23;;;25.90;96.70;;;;;;4978827;28;20089;-82
2022/08/02 05:24:15;;;;;;;4.38;1.30;;;25.80;96.70;;;;;;4967155;28;20047;-80
2022/08/02 05:26:44;;;;;;;6.43;1.65;;;25.90;96.70;;;;;;4964204;28;20053;-80
2022/08/02 05:29:14;;;;;;;3.35;1.60;;;25.80;96.70;;;;;;4970201;28;20042;-81
2022/08/02 05:31:44;;;;;;;7.90;2.70;;;25.60;96.70;;;;;;4968004;28;20050;-85
2022/08/02 05:34:13;;;;;;;6.18;2.80;;;25.80;96.70;;;;;;4984943;28;20078;-84
2022/08/02 05:36:41;;;;;;;8.20;2.95;;;26.00;96.70;;;;;;4969837;28;20567;-77
2022/08/02 05:39:12;;;;;;;11.02;3.13;;;26.00;96.70;;;;;;4981165;28;20064;-79
2022/08/02 05:41:46;;;;;;;7.25;3.00;;;26.00;96.70;;;;;;4978152;28;20051;-79
2022/08/02 05:44:15;;;;;;;4.55;2.65;;;26.00;96.70;;;;;;4964679;28;20067;-81
2022/08/02 05:46:44;;;;;;;5.82;2.38;;;26.00;96.70;;;;;;4968271;28;20077;-79
2022/08/02 05:49:14;;;;;;;3.00;1.75;;;26.00;96.70;;;;;;4981441;28;20046;-79
2022/08/02 05:51:51;;;;;;;6.18;2.05;;;26.10;96.70;;;;;;4967018;28;20070;-84
2022/08/02 05:54:26;;;;;;;7.63;2.22;;;26.20;96.70;;;;;;4962710;28;20111;-80
2022/08/02 05:57:00;;;;;;;9.73;1.83;;;26.30;96.70;;;;;;4967090;28;20105;-81
2022/08/02 05:59:35;;;;;;;6.32;2.15;;;26.20;96.70;;;;;;4980339;28;20419;-80
2022/08/02 06:02:11;;;;;;;4.93;1.20;;;26.20;96.70;;;;;;4966450;28;20051;-80
2022/08/02 06:04:47;;;;;;;7.00;1.58;;;26.30;96.70;;;;;;4965084;28;21500;-80
2022/08/02 06:07:21;;;;;;;7.50;1.50;;;26.30;96.70;;;;;;4967911;28;20042;-81
2022/08/02 06:09:50;;;;;;;4.55;1.70;;;26.50;96.70;;;;;;4979395;28;20062;-81
2022/08/02 06:12:19;;;;;;;2.67;1.33;;;26.60;96.70;;;;;;4981344;28;20101;-81
2022/08/02 06:14:51;;;;;;;4.10;1.13;;;26.70;96.70;;;;;;4980331;28;20046;-81
2022/08/02 06:17:23;;;;;;;4.47;1.88;;;26.80;96.70;;;;;;4967722;28;20053;-82
2022/08/02 06:19:56;;;;;;;3.60;1.30;;;26.90;96.70;;;;;;4983379;28;20066;-83
2022/08/02 06:22:26;;;;;;;2.25;1.40;;;27.00;96.70;;;;;;4967378;28;20047;-84
2022/08/02 06:25:04;;;;;;;5.40;1.38;;;27.10;96.70;;;;;;4985384;28;20124;-84
2022/08/02 06:27:38;;;;;;;6.50;1.77;;;27.20;96.70;;;;;;4985573;28;20074;-84
2022/08/02 06:30:10;;;;;;;4.10;1.48;;;27.30;96.70;;;;;;4969056;28;20057;-85
2022/08/02 06:32:39;;;;;;;7.18;1.95;;;27.40;96.70;;;;;;4965559;28;20130;-82
2022/08/02 06:35:08;;;;;;;3.92;1.50;;;27.50;96.70;;;;;;4968484;28;20508;-83
2022/08/02 06:37:40;;;;;;;5.43;2.25;;;27.60;96.70;;;;;;4981152;28;20090;-81
2022/08/02 06:40:20;;;;;;;6.60;2.30;;;27.80;96.70;;;;;;4982891;28;20054;-83
2022/08/02 06:42:50;;;;;;;9.98;2.95;;;27.80;96.70;;;;;;4983499;28;20061;-84
2022/08/02 06:45:21;;;;;;;6.63;2.65;;;27.90;96.70;;;;;;4967847;28;20070;-82
2022/08/02 06:47:50;;;;;;;7.03;2.40;;;28.00;96.70;;;;;;4970056;28;21305;-91
2022/08/02 06:50:19;;;;;;;9.07;3.30;;;28.20;96.70;;;;;;4970324;28;20042;-85
2022/08/02 06:52:48;;;;;;;9.38;2.95;;;28.20;96.70;;;;;;4981223;28;20493;-85
2022/08/02 06:55:16;;;;;;;5.10;2.55;;;28.20;96.70;;;;;;4982746;28;20070;-90
2022/08/02 06:57:45;;;;;;;9.10;2.60;;;28.30;96.70;;;;;;4970696;28;20109;-90
2022/08/02 07:00:14;;;;;;;6.85;2.55;;;28.40;96.70;;;;;;4985344;28;20061;-86
2022/08/02 07:02:44;;;;;;;4.78;2.13;;;28.50;96.70;;;;;;4967329;28;20094;-85
2022/08/02 07:05:12;;;;;;;4.97;1.67;;;28.60;96.70;;;;;;4983849;28;20050;-85
2022/08/02 07:07:41;;;;;;;3.95;1.05;;;28.60;96.70;;;;;;4965965;28;20102;-79
2022/08/02 07:10:09;;;;;;;13.25;1.65;;;28.60;96.70;;;;;;4969012;28;20117;-86
2022/08/02 07:12:38;;;;;;;4.70;1.90;;;28.70;96.70;;;;;;4978740;28;20515;-86
2022/08/02 07:15:08;;;;;;;3.65;1.33;;;28.80;96.70;;;;;;4970193;28;20047;-88
2022/08/02 07:17:37;;;;;;;3.05;1.48;;;28.70;96.70;;;;;;4983736;28;20047;-88
2022/08/02 07:20:08;;;;;;;8.05;1.70;;;28.70;96.70;;;;;;4967196;28;20579;-82
2022/08/02 07:22:37;;;;;;;3.47;1.40;;;28.60;96.70;;;;;;4976436;28;20073;-82
2022/08/02 07:25:06;;;;;;;4.38;1.30;;;28.60;96.70;;;;;;4964697;28;20046;-80
2022/08/02 07:27:34;;;;;;;3.58;1.30;;;28.70;96.70;;;;;;4981158;28;20543;-82
2022/08/02 07:30:04;;;;;;;3.92;1.30;;;28.80;96.70;;;;;;4982739;28;20039;-83
2022/08/02 07:32:32;;;;;;;5.35;1.13;;;28.70;96.70;;;;;;4985736;28;20050;-80
2022/08/02 07:35:02;;;;;;;3.60;1.85;;;28.70;96.70;;;;;;4979904;28;20053;-79
2022/08/02 07:37:41;;;;;;;2.97;1.65;;;28.70;96.70;;;;;;4957776;28;20485;-82
2022/08/02 07:40:23;;;;;;;3.50;1.20;;;28.70;96.70;;;;;;4968013;28;20091;-82
2022/08/02 07:42:53;;;;;;;4.68;1.45;;;28.60;96.70;;;;;;4983381;28;20104;-84
2022/08/02 07:45:30;;;;;;;2.55;1.60;;;28.60;96.70;;;;;;4975477;28;20059;-84
2022/08/02 07:47:58;;;;;;;2.80;1.45;;;28.60;96.70;;;;;;4983566;28;20039;-84
2022/08/02 07:50:27;;;;;;;2.95;1.65;;;28.60;96.70;;;;;;4964798;28;20094;-80
2022/08/02 07:52:57;;;;;;;2.35;1.50;;;28.60;96.70;;;;;;4960103;28;20053;-80
2022/08/02 07:55:26;;;;;;;3.72;1.40;;;28.70;96.70;;;;;;4965833;28;20081;-80
2022/08/02 07:58:08;;;;;;;2.40;1.40;;;28.80;96.70;;;;;;4980488;28;20420;-80
2022/08/02 08:00:41;;;;;;;4.55;1.70;;;28.80;96.70;;;;;;4966898;28;20042;-82
2022/08/02 08:03:09;;;;;;;3.28;1.65;;;28.90;96.70;;;;;;4983570;28;20047;-82
2022/08/02 08:05:38;;;;;;;4.15;1.40;;;28.90;96.70;;;;;;4964852;28;20042;-81
2022/08/02 08:08:13;;;;;;;5.05;1.42;;;28.80;96.70;;;;;;4969335;28;20043;-81
2022/08/02 08:10:44;;;;;;;3.63;1.58;;;28.80;96.70;;;;;;4984561;28;20049;-81
2022/08/02 08:13:18;;;;;;;5.82;1.80;;;28.80;96.70;;;;;;4984276;28;20086;-81
2022/08/02 08:15:46;;;;;;;5.90;1.77;;;28.80;96.70;;;;;;4971227;28;20069;-80
2022/08/02 08:18:20;;;;;;;6.80;2.05;;;28.80;96.70;;;;;;4968077;28;20488;-82
2022/08/02 08:20:50;;;;;;;8.75;2.22;;;28.80;96.70;;;;;;4969592;28;20137;-82
2022/08/02 08:23:20;;;;;;;6.72;2.10;;;28.90;96.70;;;;;;4968445;28;20125;-82
2022/08/02 08:25:49;;;;;;;5.25;2.50;;;28.90;96.70;;;;;;4971285;28;20054;-82
2022/08/02 08:28:17;;;;;;;12.85;3.22;;;28.90;96.70;;;;;;4964424;28;20506;-83
2022/08/02 08:30:48;;;;;;;8.80;3.25;;;28.90;96.70;;;;;;4968879;28;20517;-83
2022/08/02 08:33:17;;;;;;;9.57;2.75;;;29.00;96.70;;;;;;4970682;28;20138;-83
2022/08/02 08:35:46;;;;;;;11.48;2.95;;;29.00;96.70;;;;;;4966879;28;20057;-83
2022/08/02 08:38:14;;;;;;;11.05;3.08;;;29.00;96.70;;;;;;4986091;28;20130;-83
2022/08/02 08:40:45;;;;;;;9.55;2.40;;;29.10;96.70;;;;;;4986650;28;20070;-83
2022/08/02 08:43:20;;;;;;;7.88;2.58;;;29.20;96.70;;;;;;4986411;28;20047;-83
2022/08/02 08:45:49;;;;;;;6.28;2.47;;;29.30;96.70;;;;;;4986633;28;20053;-83
2022/08/02 08:48:24;;;;;;;7.97;2.47;;;29.40;96.70;;;;;;4983849;28;20121;-83
2022/08/02 08:51:04;;;;;;;6.80;2.80;;;29.40;96.70;;;;;;4985730;28;20047;-83
2022/08/02 08:53:39;;;;;;;7.25;2.60;;;29.50;96.70;;;;;;4969426;28;20078;-82
2022/08/02 08:56:11;;;;;;;4.82;2.20;;;29.50;96.70;;;;;;4971766;28;20070;-84
2022/08/02 08:58:44;;;;;;;5.95;2.60;;;29.50;96.70;;;;;;4984188;28;20063;-83
2022/08/02 09:01:13;;;;;;;8.13;2.92;;;29.60;96.70;;;;;;4986119;28;20047;-83
2022/08/02 09:03:42;;;;;;;5.80;2.20;;;29.60;96.70;;;;;;4970475;28;20131;-84
2022/08/02 09:06:10;;;;;;;9.07;2.40;;;29.60;96.70;;;;;;4986221;28;20105;-84
2022/08/02 09:08:38;;;;;;;3.10;2.03;;;29.60;96.70;;;;;;4986375;28;20521;-84
2022/08/02 09:11:14;;;;;;;5.22;2.60;;;29.70;96.70;;;;;;4970865;28;20043;-83
2022/08/02 09:13:51;;;;;;;4.82;2.40;;;29.70;96.70;;;;;;4982663;28;20039;-84
2022/08/02 09:16:33;;;;;;;3.97;2.40;;;29.80;96.70;;;;;;4977955;28;20058;-83
2022/08/02 09:19:16;;;;;;;6.25;2.50;;;29.90;96.70;;;;;;4970759;28;20061;-85
2022/08/02 09:21:44;;;;;;;7.07;2.25;;;30.20;96.70;;;;;;4986323;28;20451;-87
2022/08/02 09:24:17;;;;;;;5.43;2.45;;;30.40;96.70;;;;;;4980084;28;20154;-86
2022/08/02 09:26:48;;;;;;;4.95;2.03;;;30.60;96.70;;;;;;4971792;28;20122;-85
2022/08/02 09:29:18;;;;;;;3.92;2.08;;;30.80;96.70;;;;;;4971677;28;20043;-86
2022/08/02 09:31:48;;;;;;;3.53;2.08;;;30.90;96.70;;;;;;4983300;28;20106;-86
2022/08/02 09:34:17;;;;;;;6.75;2.40;;;30.90;96.70;;;;;;4985812;28;20062;-87
2022/08/02 09:36:47;;;;;;;5.28;2.05;;;31.00;96.70;;;;;;4986680;28;20038;-85
2022/08/02 09:39:22;;;;;;;9.55;2.33;;;31.00;96.70;;;;;;4970899;28;20055;-85
2022/08/02 09:41:52;;;;;;;5.22;2.30;;;31.00;96.70;;;;;;4970691;28;20046;-85
2022/08/02 09:44:20;;;;;;;5.53;2.25;;;30.90;96.70;;;;;;4977346;28;20109;-82
2022/08/02 09:46:48;;;;;;;5.18;2.17;;;30.80;96.70;;;;;;4988845;28;20046;-85
2022/08/02 09:49:17;;;;;;;5.00;2.10;;;30.90;96.70;;;;;;4989929;28;20060;-87
2022/08/02 09:51:49;;;;;;;4.38;1.83;;;31.00;96.70;;;;;;4985536;28;20058;-86
2022/08/02 09:54:20;;;;;;;4.70;1.95;;;31.10;96.70;;;;;;4973005;28;20137;-85
2022/08/02 09:56:49;;;;;;;4.93;2.13;;;31.10;96.70;;;;;;4990092;28;20050;-85
2022/08/02 09:59:23;;;;;;;4.47;1.80;;;31.30;96.70;;;;;;4972020;28;20050;-86
2022/08/02 10:01:53;;;;;;;7.50;2.00;;;31.30;96.70;;;;;;4983393;28;20507;-84
2022/08/02 10:04:30;;;;;;;5.00;2.08;;;31.40;96.70;;;;;;4973610;28;20495;-85
2022/08/02 10:07:02;;;;;;;6.60;1.80;;;31.50;96.70;;;;;;4973132;28;20053;-85
2022/08/02 10:09:32;;;;;;;4.50;2.42;;;31.70;96.70;;;;;;4972296;28;20057;-85
2022/08/02 10:12:00;;;;;;;5.15;2.22;;;31.90;96.70;;;;;;4990327;28;20126;-85
2022/08/02 10:14:34;;;;;;;6.63;2.20;;;32.10;96.70;;;;;;4989656;28;20085;-85
2022/08/02 10:17:04;;;;;;;4.68;2.40;;;32.20;96.70;;;;;;4988064;28;20073;-85
2022/08/02 10:19:33;;;;;;;6.22;2.20;;;32.00;96.70;;;;;;4985334;28;20104;-85
2022/08/02 10:22:23;;;;;;;4.40;2.22;;;32.10;96.70;;;;;;4988627;28;20117;-86
2022/08/02 10:24:51;;;;;;;7.40;2.22;;;32.30;96.70;;;;;;4988314;28;20053;-85
2022/08/02 10:27:24;;;;;;;4.45;1.88;;;32.50;96.70;;;;;;4987994;28;20060;-84
2022/08/02 10:29:56;;;;;;;7.53;2.42;;;32.70;96.70;;;;;;4982555;28;20412;-84
2022/08/02 10:32:28;;;;;;;4.43;2.00;;;32.70;96.70;;;;;;4985279;28;20046;-83
2022/08/02 10:34:59;;;;;;;5.57;1.98;;;32.90;96.70;;;;;;4985253;28;20050;-84
2022/08/02 10:37:50;;;;;;;5.60;1.98;;;33.00;96.70;;;;;;4985718;28;20055;-85
2022/08/02 10:40:27;;;;;;;5.25;2.05;;;33.00;96.70;;;;;;4971950;28;20061;-85
2022/08/02 10:42:58;;;;;;;5.82;2.38;;;33.10;96.70;;;;;;4987827;28;20050;-85
2022/08/02 10:45:29;;;;;;;6.45;1.98;;;33.20;96.70;;;;;;4971049;28;20058;-84
2022/08/02 10:48:04;;;;;;;8.05;2.03;;;33.30;96.70;;;;;;4978643;28;20054;-83
2022/08/02 10:51:01;;;;;;;3.22;1.80;;;33.40;96.70;;;;;;4987611;28;20045;-84
2022/08/02 10:53:30;;;;;;;6.20;1.77;;;33.30;96.70;;;;;;4957696;28;20060;-85
2022/08/02 10:56:01;;;;;;;4.07;1.70;;;33.30;96.70;;;;;;4987644;28;20042;-86
2022/08/02 10:58:31;;;;;;;4.25;1.48;;;33.50;96.70;;;;;;4987587;28;20061;-86
2022/08/02 11:01:25;;;;;;;5.97;1.60;;;33.60;96.70;;;;;;4971583;28;20497;-86
2022/08/02 11:04:06;;;;;;;3.53;1.83;;;33.70;96.70;;;;;;4984449;28;20582;-86
2022/08/02 11:07:10;;;;;;;4.85;1.90;;;33.80;96.10;;;;;;4984983;28;20073;-85
2022/08/02 11:09:38;;;;;;;3.17;1.70;;;33.80;96.50;;;;;;4968203;28;20081;-85
2022/08/02 11:12:08;;;;;;;2.97;1.58;;;33.90;95.60;;;;;;4977614;28;20069;-85
2022/08/02 11:14:38;;;;;;;3.63;1.70;;;34.10;94.50;;;;;;4987303;28;20046;-85
2022/08/02 11:17:11;;;;;;;3.42;1.80;;;34.20;94.10;;;;;;4987427;28;20540;-84
2022/08/02 11:20:14;;;;;;;7.13;2.00;;;34.30;93.40;;;;;;4979214;28;20084;-86
2022/08/02 11:22:44;;;;;;;4.88;1.77;;;34.50;92.50;;;;;;4985673;28;20065;-85
2022/08/02 11:25:32;;;;;;;3.63;1.45;;;34.60;91.50;;;;;;4988328;28;20046;-85
2022/08/02 11:28:22;;;;;;;3.10;1.35;;;34.70;91.00;;;;;;4988899;28;20469;-85
2022/08/02 11:30:57;;;;;;;4.85;1.80;;;34.80;91.60;;;;;;4986933;28;20046;-86
2022/08/02 11:33:35;;;;;;;3.58;1.60;;;34.70;92.80;;;;;;4985564;28;20038;-82
2022/08/02 11:36:06;;;;;;;5.32;1.38;;;34.90;91.80;;;;;;4983528;28;20041;-82
2022/08/02 11:38:34;;;;;;;3.92;1.48;;;34.60;90.30;;;;;;4986016;28;20046;-82
2022/08/02 11:41:04;;;;;;;3.83;1.50;;;34.50;91.10;;;;;;4988417;28;20137;-82
2022/08/02 11:43:37;;;;;;;5.13;1.70;;;34.40;91.30;;;;;;4981765;28;20046;-83
2022/08/02 11:46:13;;;;;;;3.97;1.88;;;34.40;91.90;;;;;;4971323;28;20046;-83
2022/08/02 11:48:43;;;;;;;4.53;1.42;;;34.60;91.10;;;;;;4968719;28;20459;-83
2022/08/02 11:51:13;;;;;;;2.95;1.73;;;34.70;90.20;;;;;;4988075;28;20416;-81
2022/08/02 11:53:43;;;;;;;4.50;1.40;;;34.70;90.10;;;;;;4992182;28;20046;-83
2022/08/02 11:56:12;;;;;;;2.92;1.35;;;34.70;91.00;;;;;;4988946;28;20117;-82
2022/08/02 11:59:05;;;;;;;3.40;1.40;;;35.00;90.20;;;;;;4984714;28;20503;-84
2022/08/02 12:01:35;;;;;;;2.83;1.45;;;35.30;89.50;;;;;;4988438;28;20050;-82
2022/08/02 12:04:17;;;;;;;2.65;1.38;;;35.20;88.80;;;;;;4987375;28;20051;-82
2022/08/02 12:06:57;;;;;;;4.72;1.60;;;35.10;89.50;;;;;;4988583;28;20053;-81
2022/08/02 12:09:27;;;;;;;1.83;1.58;;;35.20;89.20;;;;;;4984669;28;20051;-83
2022/08/02 12:11:56;;;;;;;3.25;1.73;;;35.40;87.80;;;;;;4987150;28;20081;-84
2022/08/02 12:14:25;;;;;;;3.60;1.73;;;35.60;88.10;;;;;;4986153;28;20778;-83
2022/08/02 12:19:42;;;;;;;3.80;1.95;;;35.80;88.30;;;;;;4990072;28;20582;-85
2022/08/02 12:22:14;;;;;;;3.45;1.52;;;36.10;86.60;;;;;;4982410;28;20985;-81
2022/08/02 12:24:46;;;;;;;1.88;1.20;;;36.20;85.40;;;;;;4987467;28;20042;-82
2022/08/02 12:27:32;;;;;;;1.92;1.15;;;36.30;83.70;;;;;;4970260;28;20050;-78
2022/08/02 12:30:03;;;;;;;4.40;1.50;;;36.20;83.40;;;;;;4981686;28;20050;-80
2022/08/02 12:32:31;;;;;;;2.38;1.10;;;35.90;83.90;;;;;;4985611;28;20293;-82
2022/08/02 12:35:08;;;;;;;1.80;1.33;;;36.10;84.00;;;;;;4982816;28;20042;-82
2022/08/02 12:37:38;;;;;;;2.33;1.27;;;36.20;82.10;;;;;;4988683;28;20093;-81
2022/08/02 12:40:21;;;;;;;2.55;1.10;;;35.80;82.30;;;;;;4986638;28;20499;-83
2022/08/02 12:42:57;;;;;;;2.55;1.10;;;35.80;83.00;;;;;;4986235;28;20480;-79
2022/08/02 12:45:31;;;;;;;2.80;1.20;;;36.00;82.80;;;;;;4969084;28;20495;-79
2022/08/02 12:48:08;;;;;;;1.67;1.15;;;35.90;82.10;;;;;;4980649;28;20066;-80
2022/08/02 12:50:38;;;;;;;2.47;1.00;;;36.10;79.70;;;;;;4980817;28;20050;-78
2022/08/02 12:53:08;;;;;;;2.08;1.27;;;36.30;80.40;;;;;;4990184;28;20042;-79
2022/08/02 12:55:46;;;;;;;2.40;1.10;;;36.50;80.20;;;;;;4978744;28;20054;-79
2022/08/02 12:58:45;;;;;;;2.67;1.10;;;36.40;79.50;;;;;;4981886;28;20061;-79
2022/08/02 13:01:20;;;;;;;2.60;1.40;;;36.30;79.40;;;;;;4983392;28;20420;-79
2022/08/02 13:03:48;;;;;;;3.78;1.42;;;36.30;79.90;;;;;;4983303;28;20052;-79
2022/08/02 13:06:38;;;;;;;1.67;1.30;;;36.30;80.50;;;;;;4986831;28;20408;-79
2022/08/02 13:09:14;;;;;;;4.97;1.70;;;36.30;79.90;;;;;;4987504;28;20061;-84
2022/08/02 13:11:42;;;;;;;2.33;1.40;;;36.60;80.60;;;;;;4971858;28;20401;-83
2022/08/02 13:14:11;;;;;;;2.50;1.50;;;36.50;79.70;;;;;;4985170;28;20038;-83